createdAt,value
2018-10-12T00:01:50.570Z,67.89
2018-10-12T00:04:19.523Z,67.92
2018-10-12T00:06:48.468Z,68.71
2018-10-12T00:09:17.395Z,68.65
2018-10-12T00:11:46.371Z,69.82
2018-10-12T00:14:15.294Z,72.82
2018-10-12T00:16:44.266Z,74.47
2018-10-12T00:19:13.186Z,73.14
2018-10-12T00:21:42.166Z,70.88
2018-10-12T00:24:11.213Z,72.74
2018-10-12T00:26:40.193Z,74.24
2018-10-12T00:29:09.126Z,74.00
2018-10-12T00:31:38.094Z,73.83
2018-10-12T00:34:07.030Z,74.39
2018-10-12T00:36:36.002Z,75.27
2018-10-12T00:39:06.174Z,72.69
2018-10-12T00:41:35.210Z,73.71
2018-10-12T00:44:04.118Z,74.28
2018-10-12T00:46:33.176Z,73.65
2018-10-12T00:49:02.082Z,72.62
2018-10-12T00:51:31.046Z,71.59
2018-10-12T00:53:59.945Z,71.21
2018-10-12T00:56:28.928Z,71.13
2018-10-12T00:58:57.834Z,70.50
2018-10-12T01:01:26.774Z,70.90
2018-10-12T01:03:55.686Z,69.91
2018-10-12T01:06:24.665Z,69.71
2018-10-12T01:08:53.605Z,69.33
2018-10-12T01:11:22.520Z,70.17
2018-10-12T01:13:51.488Z,70.54
2018-10-12T01:16:20.381Z,69.50
2018-10-12T01:18:49.961Z,69.50
2018-10-12T01:21:18.882Z,70.04
2018-10-12T01:23:47.854Z,71.77
2018-10-12T01:26:16.833Z,73.41
2018-10-12T01:28:50.205Z,73.41
2018-10-12T01:31:19.582Z,74.62
2018-10-12T01:33:48.565Z,72.82
2018-10-12T01:36:17.474Z,72.74
2018-10-12T01:38:46.602Z,74.43
2018-10-12T01:41:15.526Z,73.93
2018-10-12T01:43:44.529Z,73.35
2018-10-12T01:46:13.458Z,71.89
2018-10-12T01:48:42.432Z,71.49
2018-10-12T01:51:11.333Z,72.33
2018-10-12T01:53:40.285Z,72.79
2018-10-12T01:56:09.222Z,73.24
2018-10-12T01:58:38.200Z,76.72
2018-10-12T02:01:07.326Z,76.28
2018-10-12T02:03:36.265Z,77.19
2018-10-12T02:06:05.178Z,77.26
2018-10-12T02:08:34.157Z,73.07
2018-10-12T02:11:03.110Z,73.69
2018-10-12T02:13:32.058Z,74.82
2018-10-12T02:16:00.986Z,73.67
2018-10-12T02:18:29.899Z,74.60
2018-10-12T02:20:58.877Z,74.40
2018-10-12T02:23:27.804Z,75.27
2018-10-12T02:25:56.782Z,73.53
2018-10-12T02:28:25.714Z,74.06
2018-10-12T02:30:54.678Z,77.30
2018-10-12T02:33:23.608Z,75.04
2018-10-12T02:35:52.562Z,76.87
2018-10-12T02:38:21.606Z,79.03
2018-10-12T02:40:50.565Z,78.64
2018-10-12T02:43:19.488Z,78.17
2018-10-12T02:45:48.556Z,76.45
2018-10-12T02:48:17.477Z,74.71
2018-10-12T02:50:46.443Z,75.94
2018-10-12T02:53:15.394Z,77.77
2018-10-12T02:55:44.413Z,76.21
2018-10-12T02:58:13.330Z,77.52
2018-10-12T03:00:42.282Z,77.27
2018-10-12T03:03:11.206Z,77.88
2018-10-12T03:05:40.159Z,75.66
2018-10-12T03:08:09.097Z,76.73
2018-10-12T03:10:38.066Z,76.62
2018-10-12T03:13:07.022Z,76.94
2018-10-12T03:15:36.002Z,79.07
2018-10-12T03:18:04.929Z,78.21
2018-10-12T03:20:33.912Z,74.75
2018-10-12T03:23:02.834Z,73.98
2018-10-12T03:25:31.844Z,75.60
2018-10-12T03:28:11.764Z,74.89
2018-10-12T03:30:40.726Z,74.94
2018-10-12T03:33:09.689Z,75.29
2018-10-12T03:35:38.705Z,76.05
2018-10-12T03:38:07.666Z,74.90
2018-10-12T03:40:36.733Z,77.40
2018-10-12T03:43:05.667Z,76.76
2018-10-12T03:45:34.683Z,77.22
2018-10-12T03:48:03.580Z,75.93
2018-10-12T03:50:32.527Z,77.08
2018-10-12T03:53:01.515Z,77.84
2018-10-12T03:55:30.413Z,75.49
2018-10-12T03:57:59.385Z,73.39
2018-10-12T04:00:28.414Z,73.01
2018-10-12T04:02:57.371Z,73.14
2018-10-12T04:05:26.366Z,74.02
2018-10-12T04:07:55.347Z,73.95
2018-10-12T04:10:24.271Z,74.14
2018-10-12T04:12:53.346Z,75.19
2018-10-12T04:15:22.251Z,74.49
2018-10-12T04:17:51.255Z,74.38
2018-10-12T04:20:20.226Z,74.27
2018-10-12T04:22:49.237Z,74.12
2018-10-12T04:25:18.153Z,75.58
2018-10-12T04:27:47.157Z,74.27
2018-10-12T04:30:16.097Z,75.74
2018-10-12T04:32:45.086Z,74.54
2018-10-12T04:35:14.010Z,73.91
2018-10-12T04:37:42.991Z,74.68
2018-10-12T04:41:18.423Z,73.15
2018-10-12T04:43:48.695Z,74.49
2018-10-12T04:46:20.521Z,73.68
2018-10-12T04:48:50.639Z,77.00
2018-10-12T04:51:24.336Z,80.01
2018-10-12T04:53:53.479Z,82.42
2018-10-12T04:56:22.766Z,81.22
2018-10-12T04:58:51.736Z,80.36
2018-10-12T05:01:20.713Z,78.14
2018-10-12T05:03:49.698Z,76.40
2018-10-12T05:06:18.671Z,76.35
2018-10-12T05:08:47.643Z,76.95
2018-10-12T05:11:16.628Z,79.95
2018-10-12T05:13:45.619Z,79.43
2018-10-12T05:16:14.555Z,80.03
2018-10-12T05:18:43.563Z,80.90
2018-10-12T05:21:12.475Z,81.13
2018-10-12T05:23:41.445Z,80.96
2018-10-12T05:26:10.426Z,80.78
2018-10-12T05:28:39.698Z,78.37
2018-10-12T05:31:08.927Z,78.79
2018-10-12T05:33:37.941Z,78.24
2018-10-12T05:36:07.049Z,77.58
2018-10-12T05:38:36.017Z,76.89
2018-10-12T05:41:04.958Z,79.66
2018-10-12T05:43:34.044Z,77.00
2018-10-12T05:46:02.959Z,76.69
2018-10-12T05:48:42.853Z,75.16
2018-10-12T05:51:13.118Z,75.58
2018-10-12T05:53:42.347Z,75.71
2018-10-12T05:56:12.126Z,76.97
2018-10-12T05:58:41.118Z,75.60
2018-10-12T06:01:10.151Z,75.11
2018-10-12T06:03:39.128Z,76.54
2018-10-12T06:06:08.367Z,74.53
2018-10-12T06:08:37.822Z,73.95
2018-10-12T06:11:06.932Z,73.51
2018-10-12T06:13:35.935Z,73.88
2018-10-12T06:16:04.957Z,74.63
2018-10-12T06:18:33.935Z,74.21
2018-10-12T06:21:02.951Z,73.22
2018-10-12T06:23:31.890Z,72.64
2018-10-12T06:26:00.895Z,72.07
2018-10-12T06:28:29.946Z,72.40
2018-10-12T06:30:58.909Z,73.35
2018-10-12T06:33:27.857Z,72.18
2018-10-12T06:35:56.834Z,72.78
2018-10-12T06:38:25.909Z,71.79
2018-10-12T06:40:55.000Z,70.89
2018-10-12T06:43:24.103Z,71.45
2018-10-12T06:45:53.088Z,73.34
2018-10-12T06:48:22.147Z,71.64
2018-10-12T06:50:51.166Z,72.07
2018-10-12T06:53:20.126Z,74.31
2018-10-12T06:55:49.096Z,73.20
2018-10-12T06:58:18.019Z,72.17
2018-10-12T07:00:46.986Z,73.54
2018-10-12T07:03:15.983Z,72.07
2018-10-12T07:05:45.062Z,72.53
2018-10-12T07:08:13.966Z,72.82
2018-10-12T07:10:42.940Z,72.69
2018-10-12T07:13:11.849Z,71.19
2018-10-12T07:15:40.806Z,71.36
2018-10-12T07:18:09.779Z,71.64
2018-10-12T07:20:38.813Z,68.79
2018-10-12T07:23:07.970Z,69.74
2018-10-12T07:25:37.106Z,67.00
2018-10-12T07:28:06.042Z,65.94
2018-10-12T07:30:35.034Z,63.43
2018-10-12T07:33:03.946Z,62.58
2018-10-12T07:35:32.930Z,64.11
2018-10-12T07:38:01.837Z,67.21
2018-10-12T07:40:30.839Z,65.07
2018-10-12T07:42:59.779Z,63.32
2018-10-12T07:45:28.698Z,62.89
2018-10-12T07:47:58.045Z,61.70
2018-10-12T07:50:27.060Z,58.75
2018-10-12T07:52:56.002Z,59.39
2018-10-12T07:55:24.965Z,61.77
2018-10-12T07:57:53.941Z,60.33
2018-10-12T08:00:23.247Z,57.56
2018-10-12T08:02:52.392Z,58.95
2018-10-12T08:05:21.342Z,61.00
2018-10-12T08:07:50.327Z,60.54
2018-10-12T08:10:19.275Z,61.25
2018-10-12T08:12:48.251Z,61.66
2018-10-12T08:15:17.158Z,60.16
2018-10-12T08:17:46.116Z,60.41
2018-10-12T08:20:15.181Z,60.35
2018-10-12T08:22:44.281Z,59.64
2018-10-12T08:25:13.218Z,56.76
2018-10-12T08:27:42.217Z,58.48
2018-10-12T08:30:11.292Z,57.01
2018-10-12T08:32:40.270Z,55.25
2018-10-12T08:35:09.327Z,57.62
2018-10-12T08:37:38.310Z,57.45
2018-10-12T08:40:07.478Z,56.75
2018-10-12T08:42:36.579Z,57.81
2018-10-12T08:45:05.498Z,56.61
2018-10-12T08:47:34.518Z,58.95
2018-10-12T08:50:03.458Z,59.15
2018-10-12T08:52:32.442Z,57.54
2018-10-12T08:55:01.438Z,55.77
2018-10-12T08:57:30.502Z,54.56
2018-10-12T08:59:59.459Z,55.29
2018-10-12T09:02:28.460Z,53.89
2018-10-12T09:04:57.426Z,54.51
2018-10-12T09:07:26.429Z,52.73
2018-10-12T09:09:55.467Z,54.01
2018-10-12T09:12:24.418Z,54.88
2018-10-12T09:14:53.466Z,53.13
2018-10-12T09:17:22.506Z,54.33
2018-10-12T09:19:51.497Z,50.65
2018-10-12T09:22:20.498Z,53.98
2018-10-12T09:24:49.450Z,51.50
2018-10-12T09:27:18.469Z,52.89
2018-10-12T09:29:47.434Z,53.23
2018-10-12T09:32:16.496Z,55.36
2018-10-12T09:34:45.547Z,52.06
2018-10-12T09:37:14.591Z,53.92
2018-10-12T09:39:43.618Z,53.04
2018-10-12T09:42:12.518Z,52.07
2018-10-12T09:44:41.490Z,52.37
2018-10-12T09:47:10.525Z,49.12
2018-10-12T09:49:39.666Z,53.60
2018-10-12T09:52:09.658Z,52.91
2018-10-12T09:54:38.633Z,51.56
2018-10-12T09:57:13.303Z,50.23
2018-10-12T09:59:42.520Z,51.22
2018-10-12T10:02:16.753Z,51.25
2018-10-12T10:04:46.022Z,48.86
2018-10-12T10:07:14.943Z,47.61
2018-10-12T10:09:43.890Z,49.59
2018-10-12T10:12:12.970Z,48.34
2018-10-12T10:14:41.983Z,47.80
2018-10-12T10:17:10.906Z,47.85
2018-10-12T10:19:39.874Z,48.46
2018-10-12T10:22:08.785Z,46.83
2018-10-12T10:24:37.714Z,47.13
2018-10-12T10:27:06.819Z,47.35
2018-10-12T10:29:35.767Z,46.51
2018-10-12T10:32:04.773Z,48.87
2018-10-12T10:34:33.751Z,46.91
2018-10-12T10:37:02.723Z,45.95
2018-10-12T10:39:31.619Z,48.92
2018-10-12T10:42:00.599Z,45.11
2018-10-12T10:44:29.599Z,46.25
2018-10-12T10:46:58.626Z,46.33
2018-10-12T10:49:27.562Z,46.24
2018-10-12T10:51:56.510Z,42.71
2018-10-12T10:54:25.419Z,46.15
2018-10-12T10:56:58.491Z,44.40
2018-10-12T10:59:27.470Z,44.45
2018-10-12T11:01:56.497Z,47.00
2018-10-12T11:04:25.398Z,45.53
2018-10-12T11:06:54.388Z,45.65
2018-10-12T11:09:23.287Z,43.47
2018-10-12T11:11:52.227Z,46.24
2018-10-12T11:14:21.182Z,46.60
2018-10-12T11:16:50.123Z,47.27
2018-10-12T11:19:19.250Z,48.29
2018-10-12T11:21:48.290Z,47.59
2018-10-12T11:24:17.216Z,47.01
2018-10-12T11:26:46.284Z,46.29
2018-10-12T11:29:15.205Z,45.22
2018-10-12T11:31:44.185Z,45.48
2018-10-12T11:34:13.088Z,45.87
2018-10-12T11:36:42.068Z,45.11
2018-10-12T11:39:13.816Z,46.69
2018-10-12T11:41:42.778Z,46.75
2018-10-12T11:44:11.742Z,46.18
2018-10-12T11:46:40.701Z,45.86
2018-10-12T11:49:09.655Z,44.45
2018-10-12T11:51:38.630Z,40.46
2018-10-12T11:54:07.622Z,44.34
2018-10-12T11:56:36.577Z,44.28
2018-10-12T11:59:05.537Z,42.30
2018-10-12T12:01:35.182Z,43.59
2018-10-12T12:04:04.161Z,41.10
2018-10-12T12:06:33.085Z,45.09
2018-10-12T12:09:02.049Z,44.14
2018-10-12T12:11:30.970Z,42.80
2018-10-12T12:14:00.044Z,43.56
2018-10-12T12:16:28.920Z,40.57
2018-10-12T12:18:57.918Z,43.01
2018-10-12T12:21:26.934Z,43.32
2018-10-12T12:23:55.888Z,39.93
2018-10-12T12:26:24.826Z,42.87
2018-10-12T12:28:53.786Z,41.31
2018-10-12T12:31:22.754Z,42.03
2018-10-12T12:33:51.705Z,42.14
2018-10-12T12:36:20.634Z,41.20
2018-10-12T12:38:49.638Z,41.97
2018-10-12T12:41:18.619Z,41.81
2018-10-12T12:43:47.554Z,41.09
2018-10-12T12:46:16.794Z,39.59
2018-10-12T12:48:46.027Z,39.79
2018-10-12T12:51:15.019Z,36.76
2018-10-12T12:53:44.568Z,37.42
2018-10-12T12:56:13.715Z,39.24
2018-10-12T12:58:42.833Z,39.29
2018-10-12T13:01:11.733Z,40.50
2018-10-12T13:03:40.700Z,40.52
2018-10-12T13:06:09.629Z,42.16
2018-10-12T13:08:38.702Z,39.79
2018-10-12T13:11:07.962Z,40.68
2018-10-12T13:13:36.939Z,39.67
2018-10-12T13:16:05.867Z,40.11
2018-10-12T13:18:34.765Z,39.99
2018-10-12T13:21:03.834Z,40.45
2018-10-12T13:23:32.735Z,40.32
2018-10-12T13:26:01.833Z,41.28
2018-10-12T13:28:30.621Z,41.75
2018-10-12T13:30:59.603Z,40.14
2018-10-12T13:33:28.506Z,42.29
2018-10-12T13:35:57.454Z,40.45
2018-10-12T13:38:26.338Z,40.71
2018-10-12T13:40:55.275Z,38.01
2018-10-12T13:43:24.182Z,40.24
2018-10-12T13:45:53.148Z,39.37
2018-10-12T13:48:22.078Z,37.67
2018-10-12T13:50:51.037Z,38.84
2018-10-12T13:53:19.925Z,39.39
2018-10-12T13:55:48.889Z,40.82
2018-10-12T13:58:17.826Z,41.60
2018-10-12T14:00:46.772Z,40.56
2018-10-12T14:03:15.683Z,40.82
2018-10-12T14:05:44.667Z,39.77
2018-10-12T14:08:13.786Z,41.08
2018-10-12T14:10:42.714Z,39.54
2018-10-12T14:13:11.726Z,38.96
2018-10-12T14:15:40.647Z,35.79
2018-10-12T14:18:09.594Z,38.43
2018-10-12T14:20:38.525Z,36.53
2018-10-12T14:23:07.595Z,32.92
2018-10-12T14:25:36.608Z,34.80
2018-10-12T14:28:05.509Z,36.93
2018-10-12T14:30:34.467Z,37.94
2018-10-12T14:33:03.390Z,36.71
2018-10-12T14:35:32.354Z,37.83
2018-10-12T14:38:01.593Z,38.05
2018-10-12T14:40:30.274Z,36.13
2018-10-12T14:42:59.188Z,35.76
2018-10-12T14:45:28.146Z,34.66
2018-10-12T14:47:57.106Z,32.45
2018-10-12T14:50:26.046Z,31.99
2018-10-12T14:52:55.027Z,35.32
2018-10-12T14:55:24.053Z,39.08
2018-10-12T14:57:52.927Z,38.47
2018-10-12T15:00:21.863Z,36.83
2018-10-12T15:02:50.759Z,34.19
2018-10-12T15:05:19.785Z,35.24
2018-10-12T15:07:48.671Z,37.14
2018-10-12T15:10:17.625Z,35.55
2018-10-12T15:12:46.559Z,34.69
2018-10-12T15:15:18.846Z,36.02
2018-10-12T15:17:48.814Z,37.52
2018-10-12T15:20:18.094Z,37.28
2018-10-12T15:22:46.999Z,38.01
2018-10-12T15:25:15.936Z,39.28
2018-10-12T15:27:45.106Z,40.09
2018-10-12T15:30:15.107Z,40.01
2018-10-12T15:32:44.174Z,40.17
2018-10-12T15:35:13.066Z,39.96
2018-10-12T15:37:42.897Z,40.11
2018-10-12T15:40:11.766Z,39.84
2018-10-12T15:42:42.094Z,40.92
2018-10-12T15:45:10.657Z,41.70
2018-10-12T15:47:39.607Z,41.45
2018-10-12T15:50:08.530Z,40.47
2018-10-12T15:52:37.506Z,40.18
2018-10-12T15:55:06.455Z,41.77
2018-10-12T15:57:35.471Z,41.06
2018-10-12T16:00:04.453Z,39.58
2018-10-12T16:02:33.426Z,39.46
2018-10-12T16:05:02.332Z,39.83
2018-10-12T16:07:31.286Z,40.89
2018-10-12T16:10:00.405Z,41.00
2018-10-12T16:12:29.404Z,39.99
2018-10-12T16:14:58.453Z,40.15
2018-10-12T16:17:27.414Z,41.38
2018-10-12T16:19:56.352Z,41.18
2018-10-12T16:22:25.416Z,41.03
2018-10-12T16:25:05.205Z,41.72
2018-10-12T16:27:34.166Z,41.89
2018-10-12T16:30:03.192Z,42.35
2018-10-12T16:32:32.174Z,42.57
2018-10-12T16:35:01.195Z,42.52
2018-10-12T16:37:30.138Z,42.77
2018-10-12T16:39:59.181Z,43.60
2018-10-12T16:42:28.186Z,43.75
2018-10-12T16:44:57.146Z,44.87
2018-10-12T16:47:26.101Z,45.30
2018-10-12T16:49:55.055Z,45.42
2018-10-12T16:52:23.994Z,45.19
2018-10-12T16:54:53.943Z,45.88
2018-10-12T16:57:30.886Z,45.31
2018-10-12T16:59:59.913Z,45.11
2018-10-12T17:02:29.034Z,45.46
2018-10-12T17:04:57.966Z,44.92
2018-10-12T17:07:26.931Z,45.77
2018-10-12T17:09:55.858Z,45.47
2018-10-12T17:12:24.845Z,45.96
2018-10-12T17:14:53.804Z,45.53
2018-10-12T17:17:22.765Z,45.83
2018-10-12T17:19:51.718Z,46.37
2018-10-12T17:22:20.707Z,46.37
2018-10-12T17:24:49.638Z,47.67
2018-10-12T17:27:18.610Z,46.82
2018-10-12T17:29:47.629Z,47.34
2018-10-12T17:32:16.633Z,46.65
2018-10-12T17:34:45.557Z,47.33
2018-10-12T17:37:14.526Z,48.11
2018-10-12T17:39:43.459Z,48.25
2018-10-12T17:42:15.782Z,48.51
2018-10-12T17:44:44.877Z,48.72
2018-10-12T17:47:14.451Z,49.22
2018-10-12T17:49:43.469Z,49.37
2018-10-12T17:52:12.436Z,50.31
2018-10-12T17:54:41.381Z,50.05
2018-10-12T17:57:10.396Z,49.20
2018-10-12T17:59:39.336Z,49.11
2018-10-12T18:02:08.302Z,48.81
2018-10-12T18:04:37.253Z,48.68
2018-10-12T18:07:06.444Z,49.18
2018-10-12T18:09:35.414Z,49.85
2018-10-12T18:12:04.367Z,50.43
2018-10-12T18:14:33.286Z,49.84
2018-10-12T18:17:02.270Z,48.80
2018-10-12T18:19:31.696Z,48.84
2018-10-12T18:22:00.797Z,49.13
2018-10-12T18:24:29.766Z,49.83
2018-10-12T18:26:58.846Z,50.59
2018-10-12T18:29:27.961Z,51.15
2018-10-12T18:31:56.947Z,50.32
2018-10-12T18:34:25.881Z,49.71
2018-10-12T18:36:54.925Z,50.81
2018-10-12T18:39:23.816Z,50.68
2018-10-12T18:41:52.764Z,51.58
2018-10-12T18:44:21.975Z,51.37
2018-10-12T18:46:51.148Z,51.02
2018-10-12T18:49:20.138Z,51.92
2018-10-12T18:51:49.663Z,51.05
2018-10-12T18:54:18.663Z,50.45
2018-10-12T18:56:47.559Z,50.49
2018-10-12T18:59:16.565Z,50.68
2018-10-12T19:01:45.458Z,50.80
2018-10-12T19:04:14.386Z,52.18
2018-10-12T19:06:43.388Z,51.16
2018-10-12T19:09:12.293Z,51.59
2018-10-12T19:11:41.915Z,51.88
2018-10-12T19:14:11.199Z,51.84
2018-10-12T19:16:40.431Z,51.58
2018-10-12T19:19:09.771Z,52.44
2018-10-12T19:21:38.886Z,52.70
2018-10-12T19:24:08.164Z,52.14
2018-10-12T19:26:37.347Z,51.96
2018-10-12T19:29:07.209Z,52.79
2018-10-12T19:31:38.300Z,53.47
2018-10-12T19:34:07.606Z,54.04
2018-10-12T19:36:36.654Z,54.96
2018-10-12T19:39:07.845Z,56.75
2018-10-12T19:41:37.357Z,54.71
2018-10-12T19:44:06.821Z,54.81
2018-10-12T19:46:35.925Z,54.06
2018-10-12T19:49:06.134Z,54.46
2018-10-12T19:51:35.246Z,53.85
2018-10-12T19:54:04.354Z,54.79
2018-10-12T19:56:33.468Z,55.84
2018-10-12T19:59:03.387Z,56.79
2018-10-12T20:01:32.515Z,57.35
2018-10-12T20:04:01.701Z,55.72
2018-10-12T20:06:41.847Z,55.24
2018-10-12T20:09:13.737Z,55.10
2018-10-12T20:11:42.941Z,55.42
2018-10-12T20:14:12.636Z,54.84
2018-10-12T20:16:41.737Z,56.82
2018-10-12T20:19:10.969Z,55.73
2018-10-12T20:21:41.822Z,55.46
2018-10-12T20:24:11.442Z,55.71
2018-10-12T20:26:40.611Z,55.25
2018-10-12T20:29:10.236Z,55.35
2018-10-12T20:31:39.487Z,57.24
2018-10-12T20:34:08.768Z,55.79
2018-10-12T20:36:37.924Z,56.51
2018-10-12T20:39:09.310Z,56.88
2018-10-12T20:41:38.606Z,57.21
2018-10-12T20:44:07.897Z,57.74
2018-10-12T20:46:37.529Z,57.93
2018-10-12T20:49:06.709Z,57.45
2018-10-12T20:51:35.912Z,56.98
2018-10-12T20:54:05.056Z,57.21
2018-10-12T20:56:34.161Z,57.26
2018-10-12T20:59:03.397Z,57.77
2018-10-12T21:01:32.544Z,57.51
2018-10-12T21:04:01.895Z,57.68
2018-10-12T21:06:31.266Z,57.80
2018-10-12T21:09:00.535Z,58.30
2018-10-12T21:11:29.727Z,58.01
2018-10-12T21:13:58.864Z,58.77
2018-10-12T21:16:27.994Z,59.33
2018-10-12T21:18:57.257Z,58.79
2018-10-12T21:21:26.483Z,57.67
2018-10-12T21:23:55.741Z,58.53
2018-10-12T21:26:24.846Z,58.98
2018-10-12T21:28:54.117Z,59.08
2018-10-12T21:31:23.227Z,58.77
2018-10-12T21:33:52.386Z,59.03
2018-10-12T21:36:21.478Z,59.27
2018-10-12T21:38:50.553Z,62.07
2018-10-12T21:41:23.254Z,61.08
2018-10-12T21:43:52.354Z,63.03
2018-10-12T21:46:21.481Z,61.14
2018-10-12T21:48:50.597Z,60.78
2018-10-12T21:51:19.756Z,65.25
2018-10-12T21:53:51.430Z,62.88
2018-10-12T21:56:20.729Z,65.00
2018-10-12T21:58:52.698Z,62.96
2018-10-12T22:01:21.849Z,63.20
2018-10-12T22:03:50.959Z,61.55
2018-10-12T22:06:20.086Z,61.24
2018-10-12T22:08:53.268Z,65.16
2018-10-12T22:11:22.428Z,61.85
2018-10-12T22:13:51.602Z,65.18
2018-10-12T22:16:20.677Z,62.88
2018-10-12T22:18:49.777Z,63.59
2018-10-12T22:21:18.895Z,65.65
2018-10-12T22:23:48.027Z,66.07
2018-10-12T22:26:23.428Z,67.91
2018-10-12T22:28:52.537Z,65.09
2018-10-12T22:31:21.662Z,65.28
2018-10-12T22:33:50.757Z,63.51
2018-10-12T22:36:19.912Z,66.70
2018-10-12T22:38:49.009Z,63.75
2018-10-12T22:41:18.103Z,64.28
2018-10-12T22:43:47.289Z,65.62
2018-10-12T22:46:16.441Z,63.99
2018-10-12T22:48:45.490Z,64.28
2018-10-12T22:51:14.608Z,64.02
2018-10-12T22:53:43.776Z,63.73
2018-10-12T22:56:12.944Z,62.69
2018-10-12T22:58:42.109Z,62.93
2018-10-12T23:01:11.263Z,63.17
2018-10-12T23:03:40.397Z,62.74
2018-10-12T23:06:09.521Z,62.79
2018-10-12T23:08:38.635Z,63.12
2018-10-12T23:11:07.845Z,63.32
2018-10-12T23:13:36.920Z,63.20
2018-10-12T23:16:06.086Z,63.79
2018-10-12T23:18:35.188Z,63.85
2018-10-12T23:21:04.304Z,64.12
2018-10-12T23:23:33.387Z,63.93
2018-10-12T23:26:02.489Z,64.92
2018-10-12T23:28:31.595Z,64.71
2018-10-12T23:31:03.709Z,65.02
2018-10-12T23:33:43.670Z,65.51
2018-10-12T23:36:12.825Z,65.39
2018-10-12T23:38:41.903Z,65.10
2018-10-12T23:41:10.990Z,63.72
2018-10-12T23:43:40.130Z,64.71
2018-10-12T23:46:09.299Z,65.02
2018-10-12T23:48:38.457Z,64.02
2018-10-12T23:51:08.374Z,64.75
2018-10-12T23:53:37.555Z,65.36
2018-10-12T23:56:07.464Z,65.03
2018-10-12T23:58:36.570Z,64.55
